MST,Max TemperatureF,Mean TemperatureF,Min TemperatureF,Max Dew PointF,MeanDew PointF,Min DewpointF,Max Humidity, Mean Humidity, Min Humidity, Max Sea Level PressureIn, Mean Sea Level PressureIn, Min Sea Level PressureIn, Max VisibilityMiles, Mean VisibilityMiles, Min VisibilityMiles, Max Wind SpeedMPH, Mean Wind SpeedMPH, Max Gust SpeedMPH,PrecipitationIn, CloudCover, Events, WindDirDegrees
2013-1-1,32,18,3,27,17,0,92,75,58,30.23,30.12,29.99,10,8,2,20,9,25,0.01,4,Snow,280
2013-1-2,31,25,18,27,23,14,88,80,72,30.40,30.14,30.03,10,6,1,28,15,33,T,8,Snow,311
2013-1-3,28,22,15,18,14,8,84,71,58,30.40,30.31,30.21,10,10,10,15,8,16,T,3,,273
2013-1-4,38,25,12,20,12,6,84,66,48,30.22,30.15,30.08,10,10,10,16,9,20,0.00,0,,270
2013-1-5,35,25,14,23,17,10,88,72,56,30.28,30.19,30.07,10,10,10,30,13,37,0.00,0,,292
2013-1-6,47,29,10,23,17,9,92,62,31,30.27,30.04,29.87,10,10,10,25,8,30,0.00,0,,242
2013-1-7,46,33,20,23,20,15,92,65,37,30.04,29.94,29.72,10,10,10,13,5,17,0.00,0,,256
2013-1-8,48,36,24,33,26,20,88,72,56,30.18,29.89,29.69,10,10,10,28,12,33,0.00,1,,281
2013-1-9,55,37,18,30,24,16,91,63,35,30.21,30.10,29.89,10,10,10,18,6,24,0.00,0,,202
2013-1-10,55,46,37,41,32,21,85,64,42,29.86,29.62,29.42,10,10,10,31,13,41,0.00,0,,209
2013-1-11,38,24,9,29,15,5,92,81,70,29.93,29.65,29.45,10,3,0,36,23,43,0.28,7,Fog-Snow,318
2013-1-12,11,8,4,4,2,-1,83,75,66,30.30,30.05,29.83,10,4,1,32,18,38,0.01,8,Snow,314
2013-1-13,19,12,4,10,4,-1,83,73,62,30.31,30.28,30.13,10,10,10,17,8,21,T,7,,276
2013-1-14,17,8,-1,5,0,-6,87,72,56,30.37,30.30,30.22,10,10,10,15,6,17,0.00,2,,265
2013-1-15,39,20,0,30,13,-5,92,76,59,30.19,30.04,29.89,10,9,2,22,12,28,0.02,6,Snow,261
2013-1-16,44,37,30,30,28,26,82,69,55,30.28,30.08,29.93,10,10,10,22,12,28,0.00,4,,292
2013-1-17,41,33,25,29,24,19,81,68,55,30.42,30.28,30.04,10,10,10,14,8,16,0.00,1,,270
2013-1-18,48,39,29,29,25,20,72,59,46,30.03,29.93,29.88,10,10,10,20,11,28,0.00,0,,262
2013-1-19,44,30,15,28,21,9,80,65,49,30.36,30.16,29.88,10,10,10,23,12,28,0.00,2,,340
2013-1-20,25,17,8,16,9,0,88,75,62,30.55,30.42,30.19,10,10,2,24,12,30,T,6,Snow,8
2013-1-21,12,9,5,7,2,-4,91,80,69,30.50,30.38,30.23,10,6,2,13,4,15,0.03,8,Snow,61
2013-1-22,26,16,5,16,9,3,92,80,68,30.28,30.22,30.14,10,10,10,10,4,13,0.00,1,,101
2013-1-23,18,12,6,10,7,2,92,80,67,30.50,30.40,30.22,10,10,10,15,7,18,0.00,0,,45
2013-1-24,34,20,5,22,12,1,88,72,56,30.42,30.15,29.99,10,10,10,22,11,28,0.00,1,,79
2013-1-25,47,34,20,27,22,18,96,69,42,30.19,30.15,30.08,10,10,10,13,8,16,0.00,0,,111
2013-1-26,44,29,14,29,21,13,92,75,57,30.06,29.95,29.85,10,10,9,9,4,22,0.00,0,,75
2013-1-27,42,33,23,30,25,20,96,80,64,29.82,29.77,29.70,10,10,10,7,2,,0.00,2,,308
2013-1-28,34,30,25,32,29,25,100,95,89,29.86,29.80,29.74,10,6,1,15,5,18,0.14,8,Snow,317
2013-1-29,35,25,14,27,20,8,92,81,69,30.10,29.90,29.77,10,8,1,29,12,37,T,5,Snow,317
2013-1-30,14,9,4,9,4,-3,84,75,66,30.09,30.01,29.88,10,8,2,28,9,32,0.02,6,Snow,320
2013-1-31,11,3,-6,7,-5,-15,83,71,58,30.49,30.28,29.96,10,8,2,25,9,30,0.02,5,Snow,338